createdAt,value
2019-05-14T00:02:37.730Z,65.10
2019-05-14T00:06:43.414Z,64.70
2019-05-14T00:10:53.212Z,64.70
2019-05-14T00:14:58.960Z,65.10
2019-05-14T00:19:04.677Z,65.30
2019-05-14T00:23:11.838Z,65.00
2019-05-14T00:27:21.680Z,64.50
2019-05-14T00:31:27.708Z,64.60
2019-05-14T00:35:35.755Z,65.30
2019-05-14T00:39:41.764Z,64.70
2019-05-14T00:43:51.529Z,64.90
2019-05-14T00:47:57.914Z,64.30
2019-05-14T00:52:05.854Z,64.80
2019-05-14T00:56:12.757Z,65.00
2019-05-14T01:00:18.491Z,64.50
2019-05-14T01:04:25.431Z,64.30
2019-05-14T01:08:31.905Z,64.40
2019-05-14T01:12:37.916Z,64.50
2019-05-14T01:16:43.532Z,64.20
2019-05-14T01:20:51.943Z,64.30
2019-05-14T01:24:57.742Z,62.60
2019-05-14T01:29:06.226Z,63.80
2019-05-14T01:33:11.984Z,64.30
2019-05-14T01:37:17.804Z,62.30
2019-05-14T01:41:24.459Z,63.20
2019-05-14T01:45:31.774Z,63.20
2019-05-14T01:49:37.623Z,63.00
2019-05-14T01:53:43.337Z,61.70
2019-05-14T01:57:48.942Z,63.10
2019-05-14T02:01:57.855Z,61.80
2019-05-14T02:06:04.088Z,63.30
2019-05-14T02:10:11.649Z,61.10
2019-05-14T02:14:18.078Z,62.00
2019-05-14T02:18:26.857Z,61.30
2019-05-14T02:22:32.484Z,61.90
2019-05-14T02:26:42.443Z,61.90
2019-05-14T02:30:57.212Z,62.80
2019-05-14T02:34:55.050Z,61.30
2019-05-14T02:39:01.249Z,62.50
2019-05-14T02:43:09.760Z,62.50
2019-05-14T02:47:19.539Z,62.30
2019-05-14T02:51:24.625Z,61.10
2019-05-14T02:55:30.257Z,60.90
2019-05-14T02:59:39.434Z,61.30
2019-05-14T03:03:49.287Z,62.40
2019-05-14T03:07:53.592Z,62.80
2019-05-14T03:11:59.696Z,61.50
2019-05-14T03:16:22.143Z,61.70
2019-05-14T03:20:13.943Z,62.70
2019-05-14T03:24:19.920Z,63.10
2019-05-14T03:28:26.338Z,61.90
2019-05-14T03:32:33.260Z,61.90
2019-05-14T03:36:43.026Z,61.70
2019-05-14T03:40:49.290Z,62.10
2019-05-14T03:44:55.558Z,62.10
2019-05-14T03:49:01.615Z,62.50
2019-05-14T03:53:10.275Z,62.00
2019-05-14T03:57:19.788Z,61.40
2019-05-14T04:01:29.371Z,62.50
2019-05-14T04:05:33.539Z,62.90
2019-05-14T04:09:40.036Z,62.10
2019-05-14T04:13:49.448Z,62.40
2019-05-14T04:17:55.584Z,62.20
2019-05-14T04:22:01.277Z,61.80
2019-05-14T04:26:09.443Z,61.20
2019-05-14T04:30:19.044Z,61.80
2019-05-14T04:34:22.628Z,62.10
2019-05-14T04:38:29.970Z,61.90
2019-05-14T04:42:39.878Z,61.60
2019-05-14T04:46:45.028Z,62.60
2019-05-14T04:50:50.658Z,62.60
2019-05-14T04:54:59.184Z,62.50
2019-05-14T04:59:03.551Z,61.90
2019-05-14T05:03:12.678Z,62.50
2019-05-14T05:07:19.195Z,62.00
2019-05-14T05:11:23.788Z,62.60
2019-05-14T05:15:29.501Z,62.40
2019-05-14T05:19:35.228Z,62.30
2019-05-14T05:23:40.866Z,62.20
2019-05-14T05:27:48.543Z,61.70
2019-05-14T05:31:53.657Z,62.20
2019-05-14T05:35:59.581Z,62.40
2019-05-14T05:40:05.903Z,63.00
2019-05-14T05:44:11.509Z,62.40
2019-05-14T05:48:18.763Z,62.10
2019-05-14T05:52:28.017Z,62.60
2019-05-14T05:56:33.010Z,61.90
2019-05-14T06:00:40.162Z,61.90
2019-05-14T06:04:48.066Z,62.00
2019-05-14T06:08:53.162Z,62.60
2019-05-14T06:12:58.809Z,62.10
2019-05-14T06:17:04.488Z,62.20
2019-05-14T06:21:10.133Z,62.70
2019-05-14T06:25:15.801Z,62.40
2019-05-14T06:29:21.406Z,61.60
2019-05-14T06:33:28.671Z,61.90
2019-05-14T06:37:34.314Z,60.90
2019-05-14T06:41:42.827Z,61.80
2019-05-14T06:45:49.519Z,61.60
2019-05-14T06:49:55.375Z,62.40
2019-05-14T06:54:01.141Z,61.20
2019-05-14T06:58:09.026Z,61.00
2019-05-14T07:02:14.286Z,60.80
2019-05-14T07:06:19.857Z,62.30
2019-05-14T07:10:25.560Z,60.50
2019-05-14T07:14:31.235Z,60.30
2019-05-14T07:18:46.490Z,60.60
2019-05-14T07:22:44.207Z,60.60
2019-05-14T07:26:49.993Z,61.30
2019-05-14T07:30:55.659Z,60.20
2019-05-14T07:35:01.344Z,60.90
2019-05-14T07:39:09.543Z,60.70
2019-05-14T07:43:15.306Z,60.30
2019-05-14T07:47:21.223Z,60.60
2019-05-14T07:51:28.257Z,60.30
2019-05-14T07:55:34.017Z,60.10
2019-05-14T07:59:41.175Z,59.80
2019-05-14T08:03:48.738Z,59.70
2019-05-14T08:07:54.202Z,60.10
2019-05-14T08:11:59.955Z,60.00
2019-05-14T08:16:05.607Z,59.10
2019-05-14T08:20:11.194Z,59.50
2019-05-14T08:24:21.744Z,59.80
2019-05-14T08:28:24.134Z,59.00
2019-05-14T08:32:29.846Z,59.00
2019-05-14T08:36:37.806Z,58.70
2019-05-14T08:40:42.689Z,58.50
2019-05-14T08:44:51.208Z,58.90
2019-05-14T08:48:58.388Z,57.90
2019-05-14T08:53:03.832Z,58.20
2019-05-14T08:57:10.048Z,57.70
2019-05-14T09:01:19.506Z,57.20
2019-05-14T09:05:24.269Z,56.50
2019-05-14T09:09:29.970Z,55.50
2019-05-14T09:13:38.102Z,56.60
2019-05-14T09:17:43.858Z,57.00
2019-05-14T09:21:50.812Z,56.00
2019-05-14T09:25:58.705Z,53.50
2019-05-14T09:30:03.838Z,54.20
2019-05-14T09:34:09.440Z,53.20
2019-05-14T09:38:15.095Z,53.00
2019-05-14T09:42:20.670Z,52.00
2019-05-14T09:46:28.771Z,52.20
2019-05-14T09:50:33.787Z,52.80
2019-05-14T09:54:43.742Z,50.20
2019-05-14T09:58:49.223Z,50.90
2019-05-14T10:02:54.024Z,53.20
2019-05-14T10:06:59.753Z,53.40
2019-05-14T10:11:05.429Z,51.40
2019-05-14T10:15:11.173Z,53.10
2019-05-14T10:19:19.144Z,52.40
2019-05-14T10:23:24.176Z,53.50
2019-05-14T10:27:31.080Z,51.20
2019-05-14T10:31:39.567Z,51.30
2019-05-14T10:35:44.005Z,52.90
2019-05-14T10:39:51.001Z,52.50
2019-05-14T10:43:58.931Z,52.40
2019-05-14T10:48:03.801Z,50.90
2019-05-14T10:52:09.426Z,51.30
2019-05-14T10:56:15.096Z,51.30
2019-05-14T11:00:22.338Z,49.00
2019-05-14T11:04:28.768Z,49.70
2019-05-14T11:08:34.462Z,46.50
2019-05-14T11:12:40.752Z,46.50
2019-05-14T11:16:48.493Z,45.00
2019-05-14T11:20:53.741Z,45.60
2019-05-14T11:24:59.331Z,45.20
2019-05-14T11:29:04.935Z,45.30
2019-05-14T11:33:10.758Z,45.20
2019-05-14T11:37:18.559Z,45.30
2019-05-14T11:41:24.089Z,46.40
2019-05-14T11:45:30.002Z,46.20
2019-05-14T11:49:35.547Z,45.10
2019-05-14T11:53:41.500Z,46.90
2019-05-14T11:57:48.545Z,47.70
2019-05-14T12:01:55.570Z,45.30
2019-05-14T12:06:01.168Z,46.00
2019-05-14T12:10:09.072Z,47.20
2019-05-14T12:14:14.471Z,46.80
2019-05-14T12:18:20.135Z,48.10
2019-05-14T12:22:28.650Z,48.00
2019-05-14T12:26:33.650Z,47.30
2019-05-14T12:30:39.695Z,48.00
2019-05-14T12:34:45.421Z,47.80
2019-05-14T12:43:05.264Z,49.60
2019-05-14T12:47:10.925Z,48.40
2019-05-14T12:51:18.620Z,48.70
2019-05-14T12:55:24.776Z,46.80
2019-05-14T12:59:30.741Z,48.40
2019-05-14T13:03:36.366Z,47.20
2019-05-14T13:07:42.093Z,45.50
2019-05-14T13:11:48.073Z,49.60
2019-05-14T13:15:54.164Z,50.10
2019-05-14T13:19:59.839Z,51.70
2019-05-14T13:24:05.533Z,53.00
2019-05-14T13:28:11.276Z,52.20
2019-05-14T13:32:19.280Z,52.50
2019-05-14T13:36:24.356Z,51.90
2019-05-14T13:40:30.223Z,50.70
2019-05-14T13:44:38.351Z,51.90
2019-05-14T13:48:44.041Z,51.40
2019-05-14T13:53:09.266Z,51.20
2019-05-14T13:56:58.627Z,50.40
2019-05-14T14:01:05.256Z,49.80
2019-05-14T14:05:11.025Z,50.50
2019-05-14T14:09:16.782Z,51.70
2019-05-14T14:13:22.462Z,49.40
2019-05-14T14:17:29.218Z,50.80
2019-05-14T14:21:36.110Z,50.00
2019-05-14T14:25:42.470Z,52.40
2019-05-14T14:29:49.309Z,50.90
2019-05-14T14:33:55.118Z,51.10
2019-05-14T14:38:00.794Z,50.80
2019-05-14T14:42:06.433Z,50.00
2019-05-14T14:46:14.292Z,51.50
2019-05-14T14:50:19.568Z,52.00
2019-05-14T14:54:28.812Z,51.70
2019-05-14T14:58:34.605Z,52.80
2019-05-14T15:02:41.423Z,53.20
2019-05-14T15:06:50.446Z,52.30
2019-05-14T15:10:55.049Z,52.00
2019-05-14T15:15:00.681Z,52.10
2019-05-14T15:19:09.225Z,52.40
2019-05-14T15:23:13.850Z,52.90
2019-05-14T15:27:19.489Z,52.70
2019-05-14T15:31:25.146Z,53.20
2019-05-14T15:35:30.762Z,53.60
2019-05-14T15:39:38.908Z,53.60
2019-05-14T15:43:43.712Z,54.30
2019-05-14T15:47:49.304Z,55.30
2019-05-14T15:51:54.996Z,55.50
2019-05-14T15:56:00.767Z,55.90
2019-05-14T16:00:08.694Z,55.30
2019-05-14T16:04:13.749Z,55.70
2019-05-14T16:08:22.793Z,54.60
2019-05-14T16:12:28.740Z,57.00
2019-05-14T16:16:34.117Z,57.50
2019-05-14T16:20:39.775Z,56.70
2019-05-14T16:24:56.382Z,56.50
2019-05-14T16:28:52.721Z,57.10
2019-05-14T16:33:00.187Z,57.20
2019-05-14T16:37:10.742Z,58.40
2019-05-14T16:41:13.160Z,58.30
2019-05-14T16:45:19.146Z,58.40
2019-05-14T16:49:24.915Z,59.30
2019-05-14T16:53:30.635Z,58.70
2019-05-14T16:57:38.709Z,59.10
2019-05-14T17:01:45.546Z,59.80
2019-05-14T17:05:51.262Z,59.50
2019-05-14T17:09:58.156Z,59.80
2019-05-14T17:14:04.916Z,59.80
2019-05-14T17:18:11.376Z,61.90
2019-05-14T17:22:27.673Z,60.40
2019-05-14T17:26:25.544Z,61.60
2019-05-14T17:30:31.322Z,59.60
2019-05-14T17:34:38.871Z,60.80
2019-05-14T17:38:44.835Z,59.90
2019-05-14T17:42:50.738Z,62.30
2019-05-14T17:47:01.994Z,61.50
2019-05-14T17:51:09.418Z,61.80
2019-05-14T17:55:18.861Z,63.40
2019-05-14T17:59:24.546Z,63.40
2019-05-14T18:03:30.327Z,63.80
2019-05-14T18:07:36.141Z,63.90
2019-05-14T18:11:41.810Z,63.80
2019-05-14T18:15:48.821Z,64.40
2019-05-14T18:19:54.708Z,64.60
2019-05-14T18:24:02.858Z,64.80
2019-05-14T18:28:09.443Z,65.20
2019-05-14T18:32:19.033Z,64.40
2019-05-14T18:36:25.018Z,65.10
2019-05-14T18:40:32.749Z,68.30
2019-05-14T18:44:39.112Z,66.90
2019-05-14T18:48:45.256Z,65.70
2019-05-14T18:52:54.558Z,66.60
2019-05-14T18:57:04.924Z,66.50
2019-05-14T19:01:12.674Z,67.50
2019-05-14T19:05:18.442Z,66.60
2019-05-14T19:09:24.654Z,67.50
2019-05-14T19:13:30.698Z,67.90
2019-05-14T19:17:38.645Z,68.80
2019-05-14T19:21:45.777Z,68.60
2019-05-14T19:25:51.660Z,69.40
2019-05-14T19:29:59.208Z,69.20
2019-05-14T19:34:08.491Z,70.20
2019-05-14T19:38:19.595Z,70.90
2019-05-14T19:42:28.587Z,71.40
2019-05-14T19:46:33.904Z,71.90
2019-05-14T19:50:39.646Z,72.20
2019-05-14T19:54:45.454Z,71.70
2019-05-14T19:58:51.202Z,71.20
2019-05-14T20:02:58.209Z,73.20
2019-05-14T20:07:05.380Z,73.00
2019-05-14T20:11:13.193Z,71.50
2019-05-14T20:15:19.025Z,73.30
2019-05-14T20:19:28.481Z,72.50
2019-05-14T20:23:34.175Z,72.00
2019-05-14T20:27:41.519Z,73.00
2019-05-14T20:31:48.205Z,74.00
2019-05-14T20:35:58.825Z,75.30
2019-05-14T20:40:04.307Z,73.40
2019-05-14T20:44:14.049Z,75.20
2019-05-14T20:48:19.839Z,74.20
2019-05-14T20:52:25.673Z,76.00
2019-05-14T20:56:31.359Z,73.80
2019-05-14T21:00:41.537Z,75.20
2019-05-14T21:04:53.496Z,73.40
2019-05-14T21:08:54.688Z,73.40
2019-05-14T21:13:00.892Z,73.00
2019-05-14T21:17:08.482Z,73.90
2019-05-14T21:21:13.875Z,72.50
2019-05-14T21:25:21.196Z,73.50
2019-05-14T21:29:30.612Z,74.40
2019-05-14T21:33:39.519Z,76.10
2019-05-14T21:37:45.263Z,73.60
2019-05-14T21:41:52.450Z,72.40
2019-05-14T21:45:58.639Z,75.00
2019-05-14T21:50:05.927Z,74.50
2019-05-14T21:54:13.531Z,76.30
2019-05-14T21:58:19.820Z,76.40
2019-05-14T22:02:28.245Z,74.80
2019-05-14T22:06:33.049Z,76.60
2019-05-14T22:10:39.703Z,75.90
2019-05-14T22:14:48.172Z,74.80
2019-05-14T22:18:54.464Z,76.00
2019-05-14T22:23:00.221Z,75.00
2019-05-14T22:27:06.163Z,78.00
2019-05-14T22:31:11.887Z,75.10
2019-05-14T22:35:18.708Z,75.50
2019-05-14T22:39:25.097Z,74.60
2019-05-14T22:43:31.296Z,77.90
2019-05-14T22:47:40.000Z,77.30
2019-05-14T22:51:44.483Z,78.90
2019-05-14T22:55:50.176Z,76.40
2019-05-14T22:59:57.998Z,76.80
2019-05-14T23:04:03.548Z,77.50
2019-05-14T23:08:11.035Z,77.30
2019-05-14T23:12:17.097Z,78.50
2019-05-14T23:16:34.338Z,77.00
2019-05-14T23:20:31.949Z,79.70
2019-05-14T23:24:39.074Z,76.70
2019-05-14T23:28:49.060Z,76.80
2019-05-14T23:32:53.620Z,75.30
2019-05-14T23:36:59.245Z,78.90
2019-05-14T23:41:04.931Z,78.90
2019-05-14T23:45:10.634Z,77.50
2019-05-14T23:49:18.388Z,77.50
2019-05-14T23:53:24.544Z,76.30
2019-05-14T23:57:30.271Z,77.80
